createdAt,value
2023-02-21T00:00:00.165Z,101644.22
2023-02-21T00:02:45.275Z,101643.41
2023-02-21T00:05:30.004Z,101642.53
2023-02-21T00:08:15.210Z,101640.53
2023-02-21T00:10:59.971Z,101637.41
2023-02-21T00:13:44.845Z,101638.22
2023-02-21T00:16:34.721Z,101647.28
2023-02-21T00:19:19.506Z,101641.84
2023-02-21T00:22:04.210Z,101655.81
2023-02-21T00:24:48.915Z,101650.63
2023-02-21T00:27:33.714Z,101648.03
2023-02-21T00:30:18.412Z,101653.41
2023-02-21T00:33:06.019Z,101645.22
2023-02-21T00:35:52.110Z,101644.34
2023-02-21T00:38:36.840Z,101648.69
2023-02-21T00:41:21.988Z,101645.97
2023-02-21T00:44:07.672Z,101644.16
2023-02-21T00:46:52.626Z,101638.22
2023-02-21T00:49:37.571Z,101652.34
2023-02-21T00:52:22.531Z,101642.75
2023-02-21T00:55:07.330Z,101642.63
2023-02-21T00:57:52.187Z,101632.88
2023-02-21T01:00:41.907Z,101638.22
2023-02-21T01:03:28.207Z,101638.22
2023-02-21T01:06:15.399Z,101640.22
2023-02-21T01:09:04.316Z,101628.50
2023-02-21T01:11:50.847Z,101626.91
2023-02-21T01:14:35.917Z,101617.84
2023-02-21T01:17:20.853Z,101621.31
2023-02-21T01:20:05.599Z,101615.28
2023-02-21T01:22:52.428Z,101620.50
2023-02-21T01:25:38.760Z,101621.41
2023-02-21T01:28:23.684Z,101623.97
2023-02-21T01:31:08.457Z,101613.50
2023-02-21T01:33:58.688Z,101613.50
2023-02-21T01:36:44.132Z,101610.09
2023-02-21T01:39:29.817Z,101610.03
2023-02-21T01:42:15.025Z,101610.03
2023-02-21T01:45:04.695Z,101602.84
2023-02-21T01:47:51.022Z,101604.56
2023-02-21T01:50:43.777Z,101604.88
2023-02-21T01:53:34.610Z,101611.16
2023-02-21T01:56:20.678Z,101610.41
2023-02-21T01:59:08.588Z,101605.84
2023-02-21T02:02:04.715Z,101600.00
2023-02-21T02:04:52.032Z,101595.31
2023-02-21T02:07:37.960Z,101601.66
2023-02-21T02:10:24.914Z,101610.41
2023-02-21T02:13:12.837Z,101605.19
2023-02-21T02:16:02.720Z,101619.16
2023-02-21T02:18:37.922Z,101611.06
2023-02-21T02:21:42.390Z,101611.16
2023-02-21T02:24:22.109Z,101604.97
2023-02-21T02:27:06.760Z,101592.66
2023-02-21T02:30:04.148Z,101595.47
2023-02-21T02:33:08.988Z,101593.72
2023-02-21T02:35:41.851Z,101591.00
2023-02-21T02:38:24.404Z,101585.16
2023-02-21T02:41:03.809Z,101589.41
2023-02-21T02:43:38.587Z,101581.50
2023-02-21T02:46:10.732Z,101592.25
2023-02-21T02:48:43.668Z,101593.06
2023-02-21T02:51:14.795Z,101592.06
2023-02-21T02:53:43.054Z,101585.22
2023-02-21T02:56:14.862Z,101589.69
2023-02-21T02:58:49.208Z,101590.19
2023-02-21T03:01:54.777Z,101593.16
2023-02-21T03:04:48.999Z,101576.28
2023-02-21T03:07:47.810Z,101584.22
2023-02-21T03:10:28.006Z,101582.41
2023-02-21T03:13:16.323Z,101587.03
2023-02-21T03:15:54.925Z,101588.75
2023-02-21T03:18:32.628Z,101594.00
2023-02-21T03:21:01.509Z,101597.69
2023-02-21T03:23:30.948Z,101592.63
2023-02-21T03:26:01.244Z,101595.72
2023-02-21T03:28:29.813Z,101589.84
2023-02-21T03:30:58.721Z,101591.50
2023-02-21T03:33:25.457Z,101591.56
2023-02-21T03:35:53.126Z,101587.88
2023-02-21T03:38:19.506Z,101592.41
2023-02-21T03:40:45.857Z,101589.53
2023-02-21T03:43:12.368Z,101582.34
2023-02-21T03:45:49.552Z,101586.03
2023-02-21T03:48:30.932Z,101585.28
2023-02-21T03:51:01.677Z,101585.22
2023-02-21T03:53:33.736Z,101588.47
2023-02-21T03:56:01.895Z,101578.88
2023-02-21T03:58:38.419Z,101584.16
2023-02-21T04:01:05.775Z,101580.69
2023-02-21T04:03:32.725Z,101574.72
2023-02-21T04:06:03.998Z,101585.16
2023-02-21T04:08:30.922Z,101593.28
2023-02-21T04:10:57.288Z,101588.22
2023-02-21T04:13:27.706Z,101591.03
2023-02-21T04:15:55.474Z,101584.81
2023-02-21T04:18:21.989Z,101598.94
2023-02-21T04:20:50.723Z,101595.47
2023-02-21T04:23:19.890Z,101598.28
2023-02-21T04:25:46.837Z,101591.03
2023-02-21T04:28:18.213Z,101587.44
2023-02-21T04:30:44.598Z,101586.69
2023-02-21T04:33:11.413Z,101587.38
2023-02-21T04:35:37.809Z,101584.03
2023-02-21T04:38:12.323Z,101584.38
2023-02-21T04:40:38.674Z,101591.44
2023-02-21T04:43:05.025Z,101589.50
2023-02-21T04:45:31.449Z,101587.88
2023-02-21T04:47:57.842Z,101584.56
2023-02-21T04:50:24.181Z,101577.22
2023-02-21T04:52:50.572Z,101571.84
2023-02-21T04:55:16.983Z,101570.25
2023-02-21T04:57:43.354Z,101570.34
2023-02-21T05:00:11.197Z,101570.13
2023-02-21T05:02:37.527Z,101568.53
2023-02-21T05:05:03.951Z,101569.31
2023-02-21T05:07:30.328Z,101573.81
2023-02-21T05:09:56.655Z,101578.19
2023-02-21T05:12:23.063Z,101577.38
2023-02-21T05:14:50.210Z,101577.53
2023-02-21T05:17:16.610Z,101576.56
2023-02-21T05:19:43.052Z,101585.50
2023-02-21T05:22:09.516Z,101574.72
2023-02-21T05:24:42.420Z,101580.03
2023-02-21T05:27:11.360Z,101583.44
2023-02-21T05:29:37.937Z,101579.84
2023-02-21T05:32:04.336Z,101580.78
2023-02-21T05:34:30.792Z,101581.78
2023-02-21T05:36:57.170Z,101585.31
2023-02-21T05:39:23.586Z,101584.25
2023-02-21T05:41:51.087Z,101580.91
2023-02-21T05:44:18.169Z,101578.31
2023-02-21T05:46:45.877Z,101579.13
2023-02-21T05:49:12.342Z,101572.84
2023-02-21T05:51:41.931Z,101585.38
2023-02-21T05:54:09.915Z,101580.03
2023-02-21T05:56:41.168Z,101587.19
2023-02-21T05:59:08.712Z,101582.56
2023-02-21T06:01:35.469Z,101573.00
2023-02-21T06:04:01.893Z,101571.44
2023-02-21T06:06:28.285Z,101580.19
2023-02-21T06:08:54.684Z,101575.09
2023-02-21T06:11:28.035Z,101574.41
2023-02-21T06:13:56.668Z,101582.84
2023-02-21T06:16:23.865Z,101574.09
2023-02-21T06:18:55.347Z,101566.91
2023-02-21T06:21:21.850Z,101565.91
2023-02-21T06:23:48.326Z,101571.25
2023-02-21T06:26:15.306Z,101573.25
2023-02-21T06:28:41.693Z,101568.00
2023-02-21T06:31:08.261Z,101569.97
2023-02-21T06:33:34.787Z,101560.94
2023-02-21T06:36:10.714Z,101568.78
2023-02-21T06:38:37.161Z,101561.78
2023-02-21T06:41:08.064Z,101570.53
2023-02-21T06:43:36.486Z,101564.59
2023-02-21T06:46:04.486Z,101561.13
2023-02-21T06:48:31.197Z,101568.53
2023-02-21T06:50:57.640Z,101569.41
2023-02-21T06:53:23.978Z,101573.06
2023-02-21T06:55:50.349Z,101575.84
2023-02-21T06:58:16.732Z,101571.25
2023-02-21T07:00:43.086Z,101572.97
2023-02-21T07:03:09.413Z,101576.78
2023-02-21T07:05:37.598Z,101574.19
2023-02-21T07:08:04.430Z,101573.50
2023-02-21T07:10:31.179Z,101575.97
2023-02-21T07:12:57.555Z,101585.78
2023-02-21T07:15:23.879Z,101583.03
2023-02-21T07:17:50.327Z,101581.16
2023-02-21T07:20:16.827Z,101576.94
2023-02-21T07:22:43.189Z,101579.59
2023-02-21T07:25:15.534Z,101576.50
2023-02-21T07:27:41.914Z,101576.66
2023-02-21T07:30:09.437Z,101573.31
2023-02-21T07:32:35.807Z,101581.06
2023-02-21T07:35:02.249Z,101579.41
2023-02-21T07:37:28.566Z,101579.41
2023-02-21T07:39:54.903Z,101581.97
2023-02-21T07:42:21.210Z,101582.97
2023-02-21T07:44:47.838Z,101583.97
2023-02-21T07:47:14.210Z,101586.44
2023-02-21T07:49:41.412Z,101598.22
2023-02-21T07:52:07.804Z,101588.97
2023-02-21T07:54:34.119Z,101592.63
2023-02-21T07:57:00.443Z,101597.94
2023-02-21T07:59:26.805Z,101585.59
2023-02-21T08:01:53.464Z,101597.34
2023-02-21T08:04:21.161Z,101586.44
2023-02-21T08:06:49.208Z,101593.69
2023-02-21T08:09:16.227Z,101598.91
2023-02-21T08:11:42.560Z,101597.41
2023-02-21T08:14:08.928Z,101592.91
2023-02-21T08:16:35.341Z,101599.22
2023-02-21T08:19:01.726Z,101601.66
2023-02-21T08:21:28.068Z,101602.81
2023-02-21T08:23:55.328Z,101609.75
2023-02-21T08:26:22.626Z,101605.47
2023-02-21T08:28:48.978Z,101611.59
2023-02-21T08:31:15.682Z,101608.13
2023-02-21T08:33:42.193Z,101613.50
2023-02-21T08:36:08.578Z,101610.75
2023-02-21T08:38:34.912Z,101605.31
2023-02-21T08:41:02.771Z,101601.88
2023-02-21T08:43:29.203Z,101600.13
2023-02-21T08:45:55.533Z,101593.28
2023-02-21T08:48:21.855Z,101597.75
2023-02-21T08:50:48.276Z,101586.97
2023-02-21T08:53:15.556Z,101586.34
2023-02-21T08:55:42.980Z,101584.34
2023-02-21T08:58:10.809Z,101576.47
2023-02-21T09:00:37.204Z,101583.34
2023-02-21T09:03:03.713Z,101586.88
2023-02-21T09:05:31.711Z,101581.84
2023-02-21T09:08:01.259Z,101587.16
2023-02-21T09:10:35.837Z,101590.44
2023-02-21T09:13:03.655Z,101588.03
2023-02-21T09:15:30.138Z,101593.34
2023-02-21T09:17:56.754Z,101593.34
2023-02-21T09:20:25.429Z,101597.81
2023-02-21T09:22:52.297Z,101593.34
2023-02-21T09:25:24.363Z,101591.53
2023-02-21T09:27:53.342Z,101592.34
2023-02-21T09:30:25.957Z,101592.34
2023-02-21T09:32:52.511Z,101582.75
2023-02-21T09:35:19.086Z,101579.13
2023-02-21T09:37:46.607Z,101579.88
2023-02-21T09:40:29.226Z,101594.00
2023-02-21T09:42:58.622Z,101587.56
2023-02-21T09:45:29.546Z,101583.13
2023-02-21T09:47:59.296Z,101587.91
2023-02-21T09:50:31.073Z,101587.91
2023-02-21T09:52:58.686Z,101587.16
2023-02-21T09:55:35.336Z,101582.06
2023-02-21T09:58:02.749Z,101590.91
2023-02-21T10:00:37.984Z,101584.91
2023-02-21T10:03:19.286Z,101581.56
2023-02-21T10:05:51.027Z,101578.69
2023-02-21T10:08:59.380Z,101579.66
2023-02-21T10:11:31.246Z,101587.50
2023-02-21T10:14:22.192Z,101582.16
2023-02-21T10:16:59.551Z,101583.38
2023-02-21T10:19:32.432Z,101580.31
2023-02-21T10:22:00.887Z,101592.22
2023-02-21T10:24:28.710Z,101585.19
2023-02-21T10:27:05.570Z,101586.91
2023-02-21T10:29:47.224Z,101589.44
2023-02-21T10:32:14.334Z,101593.75
2023-02-21T10:34:46.300Z,101591.69
2023-02-21T10:37:35.942Z,101593.44
2023-02-21T10:40:22.178Z,101582.78
2023-02-21T10:42:56.480Z,101584.31
2023-02-21T10:45:32.655Z,101590.16
2023-02-21T10:48:06.382Z,101592.50
2023-02-21T10:50:59.323Z,101597.78
2023-02-21T10:53:40.315Z,101601.50
2023-02-21T10:56:16.403Z,101598.16
2023-02-21T10:58:50.090Z,101597.31
2023-02-21T11:01:37.683Z,101592.09
2023-02-21T11:04:24.296Z,101595.94
2023-02-21T11:07:05.310Z,101597.41
2023-02-21T11:09:34.874Z,101590.38
2023-02-21T11:12:03.903Z,101596.69
2023-02-21T11:14:31.488Z,101600.88
2023-02-21T11:17:07.176Z,101592.03
2023-02-21T11:19:52.663Z,101584.00
2023-02-21T11:22:48.957Z,101589.97
2023-02-21T11:25:25.934Z,101592.44
2023-02-21T11:28:16.652Z,101583.06
2023-02-21T11:31:01.316Z,101580.16
2023-02-21T11:33:29.056Z,101580.53
2023-02-21T11:36:16.956Z,101571.47
2023-02-21T11:38:47.084Z,101570.63
2023-02-21T11:41:28.298Z,101576.47
2023-02-21T11:43:55.723Z,101575.19
2023-02-21T11:46:33.005Z,101573.31
2023-02-21T11:49:22.884Z,101569.91
2023-02-21T11:51:58.594Z,101569.75
2023-02-21T11:54:28.233Z,101564.94
2023-02-21T11:57:04.392Z,101566.59
2023-02-21T12:00:09.200Z,101557.38
2023-02-21T12:02:57.727Z,101554.13
2023-02-21T12:05:40.087Z,101552.25
2023-02-21T12:08:36.454Z,101551.47
2023-02-21T12:11:11.647Z,101553.97
2023-02-21T12:13:49.757Z,101548.81
2023-02-21T12:16:30.982Z,101547.16
2023-02-21T12:19:34.897Z,101535.31
2023-02-21T12:22:19.533Z,101533.06
2023-02-21T12:25:08.813Z,101530.75
2023-02-21T12:27:55.866Z,101526.00
2023-02-21T12:30:40.474Z,101531.34
2023-02-21T12:33:51.044Z,101529.16
2023-02-21T12:36:38.879Z,101523.47
2023-02-21T12:39:28.794Z,101514.09
2023-02-21T12:42:16.684Z,101508.53
2023-02-21T12:45:13.947Z,101512.84
2023-02-21T12:47:56.451Z,101504.28
2023-02-21T12:50:27.297Z,101497.09
2023-02-21T12:53:12.677Z,101494.13
2023-02-21T12:55:54.006Z,101499.38
2023-02-21T12:58:32.427Z,101496.66
2023-02-21T13:01:06.738Z,101491.00
2023-02-21T13:03:42.342Z,101493.59
2023-02-21T13:06:33.784Z,101486.84
2023-02-21T13:09:05.923Z,101486.97
2023-02-21T13:12:01.027Z,101475.78
2023-02-21T13:14:33.841Z,101473.66
2023-02-21T13:17:00.304Z,101476.53
2023-02-21T13:19:42.011Z,101471.38
2023-02-21T13:22:41.936Z,101469.09
2023-02-21T13:25:39.394Z,101463.03
2023-02-21T13:28:17.357Z,101465.69
2023-02-21T13:30:51.815Z,101458.47
2023-02-21T13:33:28.259Z,101450.88
2023-02-21T13:35:58.646Z,101460.91
2023-02-21T13:38:27.574Z,101451.88
2023-02-21T13:41:05.844Z,101450.63
2023-02-21T13:43:36.578Z,101450.47
2023-02-21T13:46:45.176Z,101453.31
2023-02-21T13:49:42.577Z,101452.13
2023-02-21T13:52:24.205Z,101443.44
2023-02-21T13:55:15.566Z,101439.56
2023-02-21T13:57:43.516Z,101444.91
2023-02-21T14:00:24.975Z,101439.56
2023-02-21T14:03:12.473Z,101445.69
2023-02-21T14:05:53.698Z,101437.00
2023-02-21T14:08:58.539Z,101436.91
2023-02-21T14:11:28.683Z,101435.88
2023-02-21T14:13:58.497Z,101442.34
2023-02-21T14:16:32.582Z,101432.50
2023-02-21T14:19:27.175Z,101429.84
2023-02-21T14:21:59.773Z,101430.13
2023-02-21T14:24:29.307Z,101433.75
2023-02-21T14:27:01.579Z,101429.59
2023-02-21T14:29:32.654Z,101426.84
2023-02-21T14:32:02.323Z,101423.38
2023-02-21T14:34:46.802Z,101417.53
2023-02-21T14:37:21.747Z,101421.66
2023-02-21T14:40:14.071Z,101418.69
2023-02-21T14:43:04.849Z,101420.63
2023-02-21T14:45:44.603Z,101423.59
2023-02-21T14:48:39.213Z,101415.34
2023-02-21T14:51:18.008Z,101410.97
2023-02-21T14:54:00.407Z,101413.47
2023-02-21T14:56:35.783Z,101414.38
2023-02-21T14:59:20.193Z,101407.16
2023-02-21T15:02:28.228Z,101409.03
2023-02-21T15:05:04.739Z,101412.25
2023-02-21T15:07:48.531Z,101408.19
2023-02-21T15:10:21.893Z,101407.44
2023-02-21T15:12:58.868Z,101407.50
2023-02-21T15:15:30.065Z,101405.63
2023-02-21T15:18:03.247Z,101411.09
2023-02-21T15:20:30.788Z,101406.44
2023-02-21T15:23:01.616Z,101405.44
2023-02-21T15:25:28.111Z,101408.09
2023-02-21T15:27:57.767Z,101403.69
2023-02-21T15:30:34.834Z,101405.25
2023-02-21T15:33:20.116Z,101403.56
2023-02-21T15:35:51.431Z,101401.88
2023-02-21T15:38:26.643Z,101402.19
2023-02-21T15:40:56.656Z,101403.69
2023-02-21T15:43:46.167Z,101402.00
2023-02-21T15:46:19.393Z,101400.31
2023-02-21T15:48:47.429Z,101397.47
2023-02-21T15:51:14.781Z,101391.19
2023-02-21T15:53:41.356Z,101389.31
2023-02-21T15:56:25.576Z,101384.75
2023-02-21T15:59:10.788Z,101387.38
2023-02-21T16:01:37.561Z,101382.25
2023-02-21T16:04:21.451Z,101390.47
2023-02-21T16:06:54.308Z,101386.69
2023-02-21T16:09:27.864Z,101389.47
2023-02-21T16:12:01.873Z,101386.69
2023-02-21T16:14:56.144Z,101386.63
2023-02-21T16:17:41.032Z,101386.47
2023-02-21T16:20:20.582Z,101387.44
2023-02-21T16:23:08.249Z,101387.44
2023-02-21T16:25:35.117Z,101384.13
2023-02-21T16:28:02.058Z,101385.16
2023-02-21T16:30:30.835Z,101381.59
2023-02-21T16:33:03.673Z,101376.13
2023-02-21T16:35:32.002Z,101382.00
2023-02-21T16:38:00.234Z,101378.31
2023-02-21T16:40:33.255Z,101378.41
2023-02-21T16:43:01.922Z,101376.81
2023-02-21T16:45:29.952Z,101382.34
2023-02-21T16:47:59.018Z,101375.97
2023-02-21T16:50:31.006Z,101382.16
2023-02-21T16:52:58.057Z,101382.00
2023-02-21T16:55:24.527Z,101378.53
2023-02-21T16:57:54.092Z,101381.13
2023-02-21T17:00:21.941Z,101384.66
2023-02-21T17:02:49.507Z,101379.34
2023-02-21T17:05:16.576Z,101375.75
2023-02-21T17:07:43.295Z,101377.53
2023-02-21T17:10:11.226Z,101378.31
2023-02-21T17:12:37.580Z,101380.28
2023-02-21T17:15:05.026Z,101378.41
2023-02-21T17:17:31.479Z,101375.75
2023-02-21T17:19:57.862Z,101384.75
2023-02-21T17:22:24.220Z,101387.28
2023-02-21T17:24:50.642Z,101384.66
2023-02-21T17:27:16.984Z,101384.59
2023-02-21T17:29:43.332Z,101390.22
2023-02-21T17:32:09.756Z,101384.66
2023-02-21T17:34:37.246Z,101381.88
2023-02-21T17:37:04.436Z,101389.06
2023-02-21T17:39:31.189Z,101387.44
2023-02-21T17:41:57.571Z,101385.63
2023-02-21T17:44:26.481Z,101385.53
2023-02-21T17:46:56.066Z,101383.03
2023-02-21T17:49:25.068Z,101399.88
2023-02-21T17:51:52.414Z,101382.09
2023-02-21T17:54:22.258Z,101388.34
2023-02-21T17:56:49.165Z,101388.34
2023-02-21T17:59:16.265Z,101392.91
2023-02-21T18:01:42.842Z,101391.25
2023-02-21T18:04:09.835Z,101392.03
2023-02-21T18:06:36.551Z,101390.22
2023-02-21T18:09:05.700Z,101394.88
2023-02-21T18:11:32.034Z,101392.91
2023-02-21T18:13:58.573Z,101389.16
2023-02-21T18:16:24.984Z,101382.41
2023-02-21T18:18:51.408Z,101384.09
2023-02-21T18:21:18.870Z,101383.25
2023-02-21T18:23:46.424Z,101380.59
2023-02-21T18:26:13.350Z,101388.59
2023-02-21T18:28:40.194Z,101385.91
2023-02-21T18:31:07.575Z,101383.25
2023-02-21T18:33:34.784Z,101382.34
2023-02-21T18:36:01.153Z,101381.44
2023-02-21T18:38:28.092Z,101379.66
2023-02-21T18:40:54.601Z,101383.19
2023-02-21T18:43:26.908Z,101381.44
2023-02-21T18:45:54.811Z,101377.00
2023-02-21T18:48:22.825Z,101375.97
2023-02-21T18:50:49.868Z,101377.69
2023-02-21T18:53:17.187Z,101379.56
2023-02-21T18:55:43.779Z,101372.50
2023-02-21T18:58:11.102Z,101365.44
2023-02-21T19:00:39.441Z,101369.00
2023-02-21T19:03:08.255Z,101359.34
2023-02-21T19:05:35.253Z,101361.91
2023-02-21T19:08:01.663Z,101357.59
2023-02-21T19:10:29.047Z,101362.06
2023-02-21T19:12:59.080Z,101354.94
2023-02-21T19:15:26.429Z,101356.91
2023-02-21T19:17:52.759Z,101354.47
2023-02-21T19:20:19.663Z,101354.31
2023-02-21T19:22:46.456Z,101344.59
2023-02-21T19:25:14.483Z,101347.25
2023-02-21T19:27:42.726Z,101347.31
2023-02-21T19:30:10.292Z,101341.28
2023-02-21T19:32:37.354Z,101347.50
2023-02-21T19:35:08.050Z,101346.47
2023-02-21T19:37:35.886Z,101346.59
2023-02-21T19:40:03.558Z,101350.00
2023-02-21T19:42:29.898Z,101346.47
2023-02-21T19:44:56.216Z,101343.81
2023-02-21T19:47:22.557Z,101348.13
2023-02-21T19:49:48.883Z,101349.94
2023-02-21T19:52:15.234Z,101350.69
2023-02-21T19:54:41.610Z,101353.34
2023-02-21T19:57:07.939Z,101347.16
2023-02-21T19:59:35.246Z,101347.09
2023-02-21T20:02:03.382Z,101347.94
2023-02-21T20:04:30.425Z,101347.03
2023-02-21T20:06:58.041Z,101347.03
2023-02-21T20:09:24.715Z,101339.09
2023-02-21T20:11:51.055Z,101339.50
2023-02-21T20:14:17.715Z,101344.66
2023-02-21T20:16:44.711Z,101342.00
2023-02-21T20:19:12.274Z,101342.00
2023-02-21T20:21:39.428Z,101335.88
2023-02-21T20:24:10.160Z,101342.00
2023-02-21T20:26:37.107Z,101335.81
2023-02-21T20:29:04.135Z,101333.13
2023-02-21T20:31:32.766Z,101327.81
2023-02-21T20:34:03.336Z,101334.00
2023-02-21T20:36:33.181Z,101330.53
2023-02-21T20:38:59.775Z,101328.66
2023-02-21T20:41:33.327Z,101327.81
2023-02-21T20:43:59.714Z,101333.19
2023-02-21T20:46:26.917Z,101324.34
2023-02-21T20:48:53.304Z,101329.75
2023-02-21T20:51:30.925Z,101318.22
2023-02-21T20:54:00.105Z,101320.03
2023-02-21T20:56:39.366Z,101320.09
2023-02-21T20:59:07.985Z,101316.13
2023-02-21T21:01:37.776Z,101312.09
2023-02-21T21:04:07.955Z,101305.97
2023-02-21T21:06:36.586Z,101303.53
2023-02-21T21:09:03.273Z,101306.38
2023-02-21T21:11:30.360Z,101303.03
2023-02-21T21:13:56.702Z,101305.91
2023-02-21T21:16:23.109Z,101305.91
2023-02-21T21:18:49.457Z,101305.06
2023-02-21T21:21:16.151Z,101300.97
2023-02-21T21:23:42.933Z,101297.28
2023-02-21T21:26:09.511Z,101300.31
2023-02-21T21:28:36.209Z,101294.28
2023-02-21T21:31:03.382Z,101296.88
2023-02-21T21:33:29.824Z,101290.44
2023-02-21T21:35:58.343Z,101285.22
2023-02-21T21:38:26.620Z,101282.63
2023-02-21T21:40:56.773Z,101283.00
2023-02-21T21:43:24.532Z,101280.97
2023-02-21T21:45:51.299Z,101285.72
2023-02-21T21:48:18.478Z,101279.72
2023-02-21T21:50:45.087Z,101275.22
2023-02-21T21:53:11.757Z,101276.16
2023-02-21T21:55:38.718Z,101272.06
2023-02-21T21:58:13.640Z,101267.47
2023-02-21T22:00:41.917Z,101274.44
2023-02-21T22:03:13.984Z,101261.34
2023-02-21T22:05:44.509Z,101261.34
2023-02-21T22:08:16.384Z,101253.50
2023-02-21T22:10:44.897Z,101258.97
2023-02-21T22:13:14.692Z,101252.00
2023-02-21T22:15:43.966Z,101255.84
2023-02-21T22:18:11.757Z,101256.06
2023-02-21T22:20:38.237Z,101259.59
2023-02-21T22:23:06.327Z,101263.34
2023-02-21T22:25:36.691Z,101254.56
2023-02-21T22:28:09.305Z,101269.25
2023-02-21T22:30:39.824Z,101253.28
2023-02-21T22:33:08.050Z,101251.34
2023-02-21T22:35:34.642Z,101258.59
2023-02-21T22:38:05.099Z,101250.72
2023-02-21T22:40:35.316Z,101252.28
2023-02-21T22:43:08.780Z,101254.97
2023-02-21T22:45:36.300Z,101247.72
2023-02-21T22:48:05.779Z,101247.03
2023-02-21T22:50:37.319Z,101245.22
2023-02-21T22:53:08.171Z,101239.97
2023-02-21T22:55:36.864Z,101245.38
2023-02-21T22:58:06.347Z,101240.97
2023-02-21T23:00:34.367Z,101234.00
2023-02-21T23:03:12.517Z,101219.03
2023-02-21T23:05:43.911Z,101231.44
2023-02-21T23:08:12.755Z,101216.69
2023-02-21T23:10:40.231Z,101212.44
2023-02-21T23:13:10.044Z,101205.47
2023-02-21T23:15:36.878Z,101195.03
2023-02-21T23:18:04.388Z,101198.56
2023-02-21T23:20:30.855Z,101197.97
2023-02-21T23:22:58.792Z,101192.75
2023-02-21T23:25:35.037Z,101194.47
2023-02-21T23:28:12.033Z,101188.28
2023-02-21T23:30:42.697Z,101184.78
2023-02-21T23:33:15.694Z,101184.84
2023-02-21T23:35:49.126Z,101182.53
2023-02-21T23:38:16.718Z,101185.50
2023-02-21T23:40:48.013Z,101189.75
2023-02-21T23:43:16.707Z,101175.84
2023-02-21T23:45:43.784Z,101180.97
2023-02-21T23:48:15.550Z,101181.97
2023-02-21T23:50:46.908Z,101173.94
2023-02-21T23:53:16.850Z,101175.78
2023-02-21T23:55:46.324Z,101169.69
2023-02-21T23:58:16.115Z,101167.88
